sensor_id;sensor_type;location;lat;lon;timestamp;P1;durP1;ratioP1;P2;durP2;ratioP2
58468;SDS011;44257;44.804;10.220;2023-03-15T00:02:03;18.17;;;8.02;;
58468;SDS011;44257;44.804;10.220;2023-03-15T00:04:29;11.05;;;6.68;;
58468;SDS011;44257;44.804;10.220;2023-03-15T00:06:59;13.70;;;6.85;;
58468;SDS011;44257;44.804;10.220;2023-03-15T00:09:26;15.00;;;6.80;;
58468;SDS011;44257;44.804;10.220;2023-03-15T00:11:52;13.32;;;6.38;;
58468;SDS011;44257;44.804;10.220;2023-03-15T00:14:21;15.82;;;7.07;;
58468;SDS011;44257;44.804;10.220;2023-03-15T00:16:47;13.82;;;6.57;;
58468;SDS011;44257;44.804;10.220;2023-03-15T00:19:13;13.68;;;7.22;;
58468;SDS011;44257;44.804;10.220;2023-03-15T00:21:39;12.88;;;6.18;;
58468;SDS011;44257;44.804;10.220;2023-03-15T00:24:08;9.95;;;5.60;;
58468;SDS011;44257;44.804;10.220;2023-03-15T00:26:35;15.38;;;7.38;;
58468;SDS011;44257;44.804;10.220;2023-03-15T00:29:01;14.48;;;6.82;;
58468;SDS011;44257;44.804;10.220;2023-03-15T00:31:27;15.30;;;6.93;;
58468;SDS011;44257;44.804;10.220;2023-03-15T00:33:53;16.33;;;7.28;;
58468;SDS011;44257;44.804;10.220;2023-03-15T00:36:21;15.98;;;7.85;;
58468;SDS011;44257;44.804;10.220;2023-03-15T00:38:49;18.20;;;7.88;;
58468;SDS011;44257;44.804;10.220;2023-03-15T00:41:17;12.63;;;6.85;;
58468;SDS011;44257;44.804;10.220;2023-03-15T00:43:44;12.90;;;6.65;;
58468;SDS011;44257;44.804;10.220;2023-03-15T00:46:11;14.05;;;6.95;;
58468;SDS011;44257;44.804;10.220;2023-03-15T00:48:38;11.90;;;5.50;;
58468;SDS011;44257;44.804;10.220;2023-03-15T00:51:08;16.55;;;7.05;;
58468;SDS011;44257;44.804;10.220;2023-03-15T00:56:07;12.38;;;5.80;;
58468;SDS011;44257;44.804;10.220;2023-03-15T00:58:37;11.95;;;5.80;;
58468;SDS011;44257;44.804;10.220;2023-03-15T01:01:07;11.30;;;5.88;;
58468;SDS011;44257;44.804;10.220;2023-03-15T01:03:36;11.07;;;5.30;;
58468;SDS011;44257;44.804;10.220;2023-03-15T01:06:08;15.05;;;7.15;;
58468;SDS011;44257;44.804;10.220;2023-03-15T01:08:39;10.88;;;5.43;;
58468;SDS011;44257;44.804;10.220;2023-03-15T01:11:07;12.15;;;5.80;;
58468;SDS011;44257;44.804;10.220;2023-03-15T01:13:36;13.57;;;6.30;;
58468;SDS011;44257;44.804;10.220;2023-03-15T01:16:02;8.10;;;4.88;;
58468;SDS011;44257;44.804;10.220;2023-03-15T01:18:29;10.10;;;4.88;;
58468;SDS011;44257;44.804;10.220;2023-03-15T01:20:56;13.55;;;6.05;;
58468;SDS011;44257;44.804;10.220;2023-03-15T01:23:22;9.80;;;4.95;;
58468;SDS011;44257;44.804;10.220;2023-03-15T01:25:48;8.60;;;4.47;;
58468;SDS011;44257;44.804;10.220;2023-03-15T01:28:14;7.70;;;4.93;;
58468;SDS011;44257;44.804;10.220;2023-03-15T01:30:40;10.65;;;5.32;;
58468;SDS011;44257;44.804;10.220;2023-03-15T01:33:13;8.88;;;5.22;;
58468;SDS011;44257;44.804;10.220;2023-03-15T01:35:39;9.52;;;5.72;;
58468;SDS011;44257;44.804;10.220;2023-03-15T01:38:05;8.50;;;4.88;;
58468;SDS011;44257;44.804;10.220;2023-03-15T01:40:31;8.45;;;4.88;;
58468;SDS011;44257;44.804;10.220;2023-03-15T01:48:14;20.10;;;9.27;;
58468;SDS011;44257;44.804;10.220;2023-03-15T01:50:41;14.80;;;7.82;;
58468;SDS011;44257;44.804;10.220;2023-03-15T01:53:08;16.80;;;8.07;;
58468;SDS011;44257;44.804;10.220;2023-03-15T01:55:36;16.73;;;9.70;;
58468;SDS011;44257;44.804;10.220;2023-03-15T01:58:06;15.95;;;7.80;;
58468;SDS011;44257;44.804;10.220;2023-03-15T02:00:36;14.02;;;6.85;;
58468;SDS011;44257;44.804;10.220;2023-03-15T02:03:09;11.88;;;5.55;;
58468;SDS011;44257;44.804;10.220;2023-03-15T02:05:45;9.70;;;4.95;;
58468;SDS011;44257;44.804;10.220;2023-03-15T02:08:27;6.32;;;3.28;;
58468;SDS011;44257;44.804;10.220;2023-03-15T02:10:57;5.55;;;3.28;;
58468;SDS011;44257;44.804;10.220;2023-03-15T02:13:27;6.93;;;3.30;;
58468;SDS011;44257;44.804;10.220;2023-03-15T02:15:57;5.47;;;3.45;;
58468;SDS011;44257;44.804;10.220;2023-03-15T02:18:31;7.43;;;3.42;;
58468;SDS011;44257;44.804;10.220;2023-03-15T02:24:09;8.25;;;3.33;;
58468;SDS011;44257;44.804;10.220;2023-03-15T02:26:56;3.72;;;2.10;;
58468;SDS011;44257;44.804;10.220;2023-03-15T02:29:23;6.65;;;2.65;;
58468;SDS011;44257;44.804;10.220;2023-03-15T02:31:51;7.13;;;3.45;;
58468;SDS011;44257;44.804;10.220;2023-03-15T02:34:19;5.53;;;2.70;;
58468;SDS011;44257;44.804;10.220;2023-03-15T02:36:49;6.72;;;2.55;;
58468;SDS011;44257;44.804;10.220;2023-03-15T02:39:18;5.50;;;2.25;;
58468;SDS011;44257;44.804;10.220;2023-03-15T02:41:57;6.18;;;2.42;;
58468;SDS011;44257;44.804;10.220;2023-03-15T02:47:01;5.50;;;1.85;;
58468;SDS011;44257;44.804;10.220;2023-03-15T02:49:37;7.53;;;1.33;;
58468;SDS011;44257;44.804;10.220;2023-03-15T02:52:07;1.88;;;1.15;;
58468;SDS011;44257;44.804;10.220;2023-03-15T02:54:33;2.67;;;1.27;;
58468;SDS011;44257;44.804;10.220;2023-03-15T02:57:02;1.85;;;0.90;;
58468;SDS011;44257;44.804;10.220;2023-03-15T02:59:29;2.80;;;1.05;;
58468;SDS011;44257;44.804;10.220;2023-03-15T03:01:55;2.28;;;1.00;;
58468;SDS011;44257;44.804;10.220;2023-03-15T03:04:21;3.53;;;1.60;;
58468;SDS011;44257;44.804;10.220;2023-03-15T03:06:47;2.92;;;1.08;;
58468;SDS011;44257;44.804;10.220;2023-03-15T03:09:18;0.82;;;0.63;;
58468;SDS011;44257;44.804;10.220;2023-03-15T03:11:44;1.88;;;0.80;;
58468;SDS011;44257;44.804;10.220;2023-03-15T03:14:11;0.60;;;0.35;;
58468;SDS011;44257;44.804;10.220;2023-03-15T03:16:40;0.30;;;0.30;;
58468;SDS011;44257;44.804;10.220;2023-03-15T03:19:07;0.95;;;0.47;;
58468;SDS011;44257;44.804;10.220;2023-03-15T03:21:38;1.15;;;0.30;;
58468;SDS011;44257;44.804;10.220;2023-03-15T03:24:03;1.15;;;0.60;;
58468;SDS011;44257;44.804;10.220;2023-03-15T03:26:29;1.15;;;0.40;;
58468;SDS011;44257;44.804;10.220;2023-03-15T03:28:57;1.63;;;0.38;;
58468;SDS011;44257;44.804;10.220;2023-03-15T03:31:25;0.25;;;0.25;;
58468;SDS011;44257;44.804;10.220;2023-03-15T03:33:54;1.48;;;0.40;;
58468;SDS011;44257;44.804;10.220;2023-03-15T03:36:21;1.58;;;0.55;;
58468;SDS011;44257;44.804;10.220;2023-03-15T03:38:49;0.50;;;0.40;;
58468;SDS011;44257;44.804;10.220;2023-03-15T03:41:16;0.10;;;0.10;;
58468;SDS011;44257;44.804;10.220;2023-03-15T03:43:42;0.43;;;0.40;;
58468;SDS011;44257;44.804;10.220;2023-03-15T03:46:08;0.15;;;0.10;;
58468;SDS011;44257;44.804;10.220;2023-03-15T03:48:39;0.13;;;0.10;;
58468;SDS011;44257;44.804;10.220;2023-03-15T03:51:05;0.10;;;0.10;;
58468;SDS011;44257;44.804;10.220;2023-03-15T03:53:31;0.10;;;0.10;;
58468;SDS011;44257;44.804;10.220;2023-03-15T03:55:57;0.40;;;0.20;;
58468;SDS011;44257;44.804;10.220;2023-03-15T03:58:24;0.20;;;0.20;;
58468;SDS011;44257;44.804;10.220;2023-03-15T04:00:56;0.47;;;0.20;;
58468;SDS011;44257;44.804;10.220;2023-03-15T04:03:26;0.30;;;0.10;;
58468;SDS011;44257;44.804;10.220;2023-03-15T04:05:57;0.05;;;0.05;;
58468;SDS011;44257;44.804;10.220;2023-03-15T04:08:25;0.13;;;0.10;;
58468;SDS011;44257;44.804;10.220;2023-03-15T04:10:55;0.10;;;0.10;;
58468;SDS011;44257;44.804;10.220;2023-03-15T04:15:51;0.20;;;0.10;;
58468;SDS011;44257;44.804;10.220;2023-03-15T04:18:22;0.10;;;0.10;;
58468;SDS011;44257;44.804;10.220;2023-03-15T04:20:49;0.17;;;0.10;;
58468;SDS011;44257;44.804;10.220;2023-03-15T04:23:18;0.10;;;0.10;;
58468;SDS011;44257;44.804;10.220;2023-03-15T04:26:12;0.22;;;0.15;;
58468;SDS011;44257;44.804;10.220;2023-03-15T04:28:59;0.25;;;0.20;;
58468;SDS011;44257;44.804;10.220;2023-03-15T04:31:48;0.43;;;0.20;;
58468;SDS011;44257;44.804;10.220;2023-03-15T04:34:22;0.10;;;0.10;;
58468;SDS011;44257;44.804;10.220;2023-03-15T04:37:30;0.10;;;0.10;;
58468;SDS011;44257;44.804;10.220;2023-03-15T04:40:06;1.10;;;0.45;;
58468;SDS011;44257;44.804;10.220;2023-03-15T04:42:45;0.22;;;0.22;;
58468;SDS011;44257;44.804;10.220;2023-03-15T04:45:26;0.65;;;0.35;;
58468;SDS011;44257;44.804;10.220;2023-03-15T04:48:16;0.10;;;0.10;;
58468;SDS011;44257;44.804;10.220;2023-03-15T04:50:50;1.40;;;0.30;;
58468;SDS011;44257;44.804;10.220;2023-03-15T04:53:30;0.10;;;0.10;;
58468;SDS011;44257;44.804;10.220;2023-03-15T04:56:07;1.38;;;0.40;;
58468;SDS011;44257;44.804;10.220;2023-03-15T04:58:40;0.28;;;0.17;;
58468;SDS011;44257;44.804;10.220;2023-03-15T05:01:36;0.15;;;0.10;;
58468;SDS011;44257;44.804;10.220;2023-03-15T05:04:13;0.75;;;0.38;;
58468;SDS011;44257;44.804;10.220;2023-03-15T05:06:48;0.10;;;0.10;;
58468;SDS011;44257;44.804;10.220;2023-03-15T05:09:33;0.20;;;0.20;;
58468;SDS011;44257;44.804;10.220;2023-03-15T05:12:20;0.65;;;0.30;;
58468;SDS011;44257;44.804;10.220;2023-03-15T05:14:56;0.10;;;0.10;;
58468;SDS011;44257;44.804;10.220;2023-03-15T05:17:40;0.28;;;0.13;;
58468;SDS011;44257;44.804;10.220;2023-03-15T05:20:35;0.45;;;0.20;;
58468;SDS011;44257;44.804;10.220;2023-03-15T05:23:09;0.80;;;0.30;;
58468;SDS011;44257;44.804;10.220;2023-03-15T05:25:54;0.45;;;0.22;;
58468;SDS011;44257;44.804;10.220;2023-03-15T05:28:38;0.45;;;0.40;;
58468;SDS011;44257;44.804;10.220;2023-03-15T05:31:21;2.08;;;0.30;;
58468;SDS011;44257;44.804;10.220;2023-03-15T05:34:04;0.30;;;0.30;;
58468;SDS011;44257;44.804;10.220;2023-03-15T05:36:57;1.83;;;0.30;;
58468;SDS011;44257;44.804;10.220;2023-03-15T05:39:56;0.40;;;0.30;;
58468;SDS011;44257;44.804;10.220;2023-03-15T05:42:52;0.90;;;0.20;;
58468;SDS011;44257;44.804;10.220;2023-03-15T05:45:23;0.50;;;0.40;;
58468;SDS011;44257;44.804;10.220;2023-03-15T05:48:00;0.88;;;0.30;;
58468;SDS011;44257;44.804;10.220;2023-03-15T05:50:34;2.97;;;0.47;;
58468;SDS011;44257;44.804;10.220;2023-03-15T05:53:29;1.30;;;0.50;;
58468;SDS011;44257;44.804;10.220;2023-03-15T05:56:20;0.80;;;0.40;;
58468;SDS011;44257;44.804;10.220;2023-03-15T05:58:46;1.17;;;0.63;;
58468;SDS011;44257;44.804;10.220;2023-03-15T06:01:33;3.17;;;1.00;;
58468;SDS011;44257;44.804;10.220;2023-03-15T06:04:10;0.75;;;0.40;;
58468;SDS011;44257;44.804;10.220;2023-03-15T06:06:36;2.72;;;1.20;;
58468;SDS011;44257;44.804;10.220;2023-03-15T06:09:04;0.85;;;0.47;;
58468;SDS011;44257;44.804;10.220;2023-03-15T06:11:30;1.60;;;0.57;;
58468;SDS011;44257;44.804;10.220;2023-03-15T06:13:57;0.77;;;0.40;;
58468;SDS011;44257;44.804;10.220;2023-03-15T06:16:38;0.38;;;0.30;;
58468;SDS011;44257;44.804;10.220;2023-03-15T06:19:05;0.57;;;0.32;;
58468;SDS011;44257;44.804;10.220;2023-03-15T06:21:31;0.82;;;0.30;;
58468;SDS011;44257;44.804;10.220;2023-03-15T06:23:57;0.25;;;0.20;;
58468;SDS011;44257;44.804;10.220;2023-03-15T06:26:23;1.00;;;0.47;;
58468;SDS011;44257;44.804;10.220;2023-03-15T06:28:53;0.50;;;0.30;;
58468;SDS011;44257;44.804;10.220;2023-03-15T06:31:19;0.75;;;0.43;;
58468;SDS011;44257;44.804;10.220;2023-03-15T06:33:54;1.75;;;0.30;;
58468;SDS011;44257;44.804;10.220;2023-03-15T06:36:20;0.93;;;0.40;;
58468;SDS011;44257;44.804;10.220;2023-03-15T06:38:46;0.93;;;0.40;;
58468;SDS011;44257;44.804;10.220;2023-03-15T06:41:12;0.30;;;0.30;;
58468;SDS011;44257;44.804;10.220;2023-03-15T06:43:40;1.13;;;0.60;;
58468;SDS011;44257;44.804;10.220;2023-03-15T06:46:06;0.43;;;0.30;;
58468;SDS011;44257;44.804;10.220;2023-03-15T06:48:32;0.52;;;0.20;;
58468;SDS011;44257;44.804;10.220;2023-03-15T06:50:58;0.50;;;0.20;;
58468;SDS011;44257;44.804;10.220;2023-03-15T06:53:24;0.20;;;0.10;;
58468;SDS011;44257;44.804;10.220;2023-03-15T06:55:49;0.10;;;0.10;;
58468;SDS011;44257;44.804;10.220;2023-03-15T06:58:16;0.50;;;0.25;;
58468;SDS011;44257;44.804;10.220;2023-03-15T07:00:42;0.35;;;0.25;;
58468;SDS011;44257;44.804;10.220;2023-03-15T07:03:08;0.30;;;0.20;;
58468;SDS011;44257;44.804;10.220;2023-03-15T07:05:34;0.47;;;0.20;;
58468;SDS011;44257;44.804;10.220;2023-03-15T07:08:01;0.70;;;0.28;;
58468;SDS011;44257;44.804;10.220;2023-03-15T07:10:27;0.32;;;0.30;;
58468;SDS011;44257;44.804;10.220;2023-03-15T07:12:53;0.20;;;0.13;;
58468;SDS011;44257;44.804;10.220;2023-03-15T07:15:19;2.17;;;0.32;;
58468;SDS011;44257;44.804;10.220;2023-03-15T07:17:45;3.03;;;0.40;;
58468;SDS011;44257;44.804;10.220;2023-03-15T07:20:10;0.45;;;0.20;;
58468;SDS011;44257;44.804;10.220;2023-03-15T07:22:36;0.17;;;0.17;;
58468;SDS011;44257;44.804;10.220;2023-03-15T07:25:03;0.32;;;0.10;;
58468;SDS011;44257;44.804;10.220;2023-03-15T07:27:31;0.55;;;0.30;;
58468;SDS011;44257;44.804;10.220;2023-03-15T07:29:57;0.20;;;0.17;;
58468;SDS011;44257;44.804;10.220;2023-03-15T07:32:23;0.22;;;0.22;;
58468;SDS011;44257;44.804;10.220;2023-03-15T07:34:49;0.20;;;0.20;;
58468;SDS011;44257;44.804;10.220;2023-03-15T07:37:15;0.40;;;0.15;;
58468;SDS011;44257;44.804;10.220;2023-03-15T07:39:42;0.82;;;0.28;;
58468;SDS011;44257;44.804;10.220;2023-03-15T07:42:08;2.50;;;0.20;;
58468;SDS011;44257;44.804;10.220;2023-03-15T07:44:39;0.77;;;0.30;;
58468;SDS011;44257;44.804;10.220;2023-03-15T07:47:05;0.60;;;0.20;;
58468;SDS011;44257;44.804;10.220;2023-03-15T07:49:31;1.85;;;0.22;;
58468;SDS011;44257;44.804;10.220;2023-03-15T07:51:58;0.22;;;0.20;;
58468;SDS011;44257;44.804;10.220;2023-03-15T07:54:24;0.10;;;0.10;;
58468;SDS011;44257;44.804;10.220;2023-03-15T07:56:50;0.50;;;0.20;;
58468;SDS011;44257;44.804;10.220;2023-03-15T07:59:15;0.20;;;0.20;;
58468;SDS011;44257;44.804;10.220;2023-03-15T08:01:41;2.90;;;0.30;;
58468;SDS011;44257;44.804;10.220;2023-03-15T08:04:07;0.65;;;0.20;;
58468;SDS011;44257;44.804;10.220;2023-03-15T08:06:33;0.95;;;0.32;;
58468;SDS011;44257;44.804;10.220;2023-03-15T08:08:58;0.52;;;0.22;;
58468;SDS011;44257;44.804;10.220;2023-03-15T08:11:25;0.90;;;0.45;;
58468;SDS011;44257;44.804;10.220;2023-03-15T08:13:51;0.30;;;0.10;;
58468;SDS011;44257;44.804;10.220;2023-03-15T08:16:17;0.35;;;0.10;;
58468;SDS011;44257;44.804;10.220;2023-03-15T08:18:43;0.88;;;0.20;;
58468;SDS011;44257;44.804;10.220;2023-03-15T08:21:08;0.38;;;0.20;;
58468;SDS011;44257;44.804;10.220;2023-03-15T08:23:34;4.22;;;0.20;;
58468;SDS011;44257;44.804;10.220;2023-03-15T08:26:00;0.20;;;0.15;;
58468;SDS011;44257;44.804;10.220;2023-03-15T08:28:26;1.40;;;0.20;;
58468;SDS011;44257;44.804;10.220;2023-03-15T08:30:51;0.75;;;0.28;;
58468;SDS011;44257;44.804;10.220;2023-03-15T08:33:17;0.25;;;0.17;;
58468;SDS011;44257;44.804;10.220;2023-03-15T08:35:43;0.28;;;0.10;;
58468;SDS011;44257;44.804;10.220;2023-03-15T08:38:10;0.20;;;0.10;;
58468;SDS011;44257;44.804;10.220;2023-03-15T08:40:35;0.10;;;0.10;;
58468;SDS011;44257;44.804;10.220;2023-03-15T08:43:02;0.88;;;0.10;;
58468;SDS011;44257;44.804;10.220;2023-03-15T08:45:28;0.15;;;0.15;;
58468;SDS011;44257;44.804;10.220;2023-03-15T08:47:55;0.75;;;0.30;;
58468;SDS011;44257;44.804;10.220;2023-03-15T08:50:24;1.00;;;0.20;;
58468;SDS011;44257;44.804;10.220;2023-03-15T08:52:51;0.55;;;0.30;;
58468;SDS011;44257;44.804;10.220;2023-03-15T08:55:17;0.40;;;0.20;;
58468;SDS011;44257;44.804;10.220;2023-03-15T08:57:43;0.15;;;0.10;;
58468;SDS011;44257;44.804;10.220;2023-03-15T09:00:10;0.28;;;0.17;;
58468;SDS011;44257;44.804;10.220;2023-03-15T09:02:45;0.17;;;0.10;;
58468;SDS011;44257;44.804;10.220;2023-03-15T09:05:12;0.50;;;0.20;;
58468;SDS011;44257;44.804;10.220;2023-03-15T09:07:40;0.43;;;0.22;;
58468;SDS011;44257;44.804;10.220;2023-03-15T09:10:11;0.60;;;0.15;;
58468;SDS011;44257;44.804;10.220;2023-03-15T09:15:09;0.85;;;0.20;;
58468;SDS011;44257;44.804;10.220;2023-03-15T09:17:36;0.10;;;0.10;;
58468;SDS011;44257;44.804;10.220;2023-03-15T09:20:05;0.50;;;0.13;;
58468;SDS011;44257;44.804;10.220;2023-03-15T09:22:35;0.17;;;0.10;;
58468;SDS011;44257;44.804;10.220;2023-03-15T09:25:01;0.43;;;0.10;;
58468;SDS011;44257;44.804;10.220;2023-03-15T09:27:31;1.05;;;0.20;;
58468;SDS011;44257;44.804;10.220;2023-03-15T09:29:57;0.28;;;0.10;;
58468;SDS011;44257;44.804;10.220;2023-03-15T09:32:23;0.20;;;0.10;;
58468;SDS011;44257;44.804;10.220;2023-03-15T09:34:49;0.43;;;0.20;;
58468;SDS011;44257;44.804;10.220;2023-03-15T09:37:15;0.00;;;0.00;;
58468;SDS011;44257;44.804;10.220;2023-03-15T09:39:41;0.32;;;0.20;;
58468;SDS011;44257;44.804;10.220;2023-03-15T09:42:21;0.63;;;0.15;;
58468;SDS011;44257;44.804;10.220;2023-03-15T09:59:05;0.00;;;0.00;;
58468;SDS011;44257;44.804;10.220;2023-03-15T10:01:35;0.40;;;0.20;;
58468;SDS011;44257;44.804;10.220;2023-03-15T10:06:56;0.50;;;0.17;;
58468;SDS011;44257;44.804;10.220;2023-03-15T10:09:46;0.20;;;0.10;;
58468;SDS011;44257;44.804;10.220;2023-03-15T10:12:19;0.50;;;0.30;;
58468;SDS011;44257;44.804;10.220;2023-03-15T10:20:35;0.38;;;0.20;;
58468;SDS011;44257;44.804;10.220;2023-03-15T10:26:35;0.50;;;0.17;;
58468;SDS011;44257;44.804;10.220;2023-03-15T10:29:07;0.85;;;0.55;;
58468;SDS011;44257;44.804;10.220;2023-03-15T10:31:43;0.40;;;0.20;;
58468;SDS011;44257;44.804;10.220;2023-03-15T10:34:10;0.47;;;0.20;;
58468;SDS011;44257;44.804;10.220;2023-03-15T10:36:42;0.28;;;0.20;;
58468;SDS011;44257;44.804;10.220;2023-03-15T10:39:21;0.45;;;0.13;;
58468;SDS011;44257;44.804;10.220;2023-03-15T10:41:49;2.30;;;0.10;;
58468;SDS011;44257;44.804;10.220;2023-03-15T10:44:22;0.35;;;0.20;;
58468;SDS011;44257;44.804;10.220;2023-03-15T10:47:01;0.30;;;0.30;;
58468;SDS011;44257;44.804;10.220;2023-03-15T10:49:42;0.47;;;0.25;;
58468;SDS011;44257;44.804;10.220;2023-03-15T10:52:54;0.00;;;0.00;;
58468;SDS011;44257;44.804;10.220;2023-03-15T10:57:39;0.03;;;0.03;;
58468;SDS011;44257;44.804;10.220;2023-03-15T11:00:26;0.30;;;0.10;;
58468;SDS011;44257;44.804;10.220;2023-03-15T11:03:06;0.40;;;0.28;;
58468;SDS011;44257;44.804;10.220;2023-03-15T11:05:44;0.32;;;0.20;;
58468;SDS011;44257;44.804;10.220;2023-03-15T11:08:16;0.43;;;0.28;;
58468;SDS011;44257;44.804;10.220;2023-03-15T11:11:01;0.63;;;0.28;;
58468;SDS011;44257;44.804;10.220;2023-03-15T11:13:31;0.38;;;0.30;;
58468;SDS011;44257;44.804;10.220;2023-03-15T11:16:06;0.20;;;0.15;;
58468;SDS011;44257;44.804;10.220;2023-03-15T11:21:15;1.88;;;0.15;;
58468;SDS011;44257;44.804;10.220;2023-03-15T11:23:45;0.38;;;0.15;;
58468;SDS011;44257;44.804;10.220;2023-03-15T11:26:17;1.02;;;0.30;;
58468;SDS011;44257;44.804;10.220;2023-03-15T11:29:00;0.88;;;0.25;;
58468;SDS011;44257;44.804;10.220;2023-03-15T11:31:32;0.10;;;0.10;;
58468;SDS011;44257;44.804;10.220;2023-03-15T11:34:03;0.13;;;0.10;;
58468;SDS011;44257;44.804;10.220;2023-03-15T11:36:39;0.80;;;0.20;;
58468;SDS011;44257;44.804;10.220;2023-03-15T11:39:12;0.25;;;0.20;;
58468;SDS011;44257;44.804;10.220;2023-03-15T11:41:51;1.65;;;0.30;;
58468;SDS011;44257;44.804;10.220;2023-03-15T11:47:02;0.20;;;0.20;;
58468;SDS011;44257;44.804;10.220;2023-03-15T11:52:24;0.38;;;0.25;;
58468;SDS011;44257;44.804;10.220;2023-03-15T11:54:56;0.45;;;0.20;;
58468;SDS011;44257;44.804;10.220;2023-03-15T11:57:38;0.15;;;0.10;;
58468;SDS011;44257;44.804;10.220;2023-03-15T12:00:17;0.30;;;0.20;;
58468;SDS011;44257;44.804;10.220;2023-03-15T12:02:53;0.82;;;0.20;;
58468;SDS011;44257;44.804;10.220;2023-03-15T12:08:19;0.32;;;0.20;;
58468;SDS011;44257;44.804;10.220;2023-03-15T12:11:01;0.98;;;0.38;;
58468;SDS011;44257;44.804;10.220;2023-03-15T12:13:38;0.65;;;0.30;;
58468;SDS011;44257;44.804;10.220;2023-03-15T12:16:42;0.65;;;0.20;;
58468;SDS011;44257;44.804;10.220;2023-03-15T12:19:14;0.30;;;0.28;;
58468;SDS011;44257;44.804;10.220;2023-03-15T12:24:27;2.40;;;0.20;;
58468;SDS011;44257;44.804;10.220;2023-03-15T12:27:00;0.20;;;0.20;;
58468;SDS011;44257;44.804;10.220;2023-03-15T12:29:45;0.47;;;0.30;;
58468;SDS011;44257;44.804;10.220;2023-03-15T12:32:15;0.60;;;0.20;;
58468;SDS011;44257;44.804;10.220;2023-03-15T12:34:49;0.20;;;0.10;;
58468;SDS011;44257;44.804;10.220;2023-03-15T12:39:50;0.45;;;0.30;;
58468;SDS011;44257;44.804;10.220;2023-03-15T12:55:48;2.72;;;0.50;;
58468;SDS011;44257;44.804;10.220;2023-03-15T12:58:19;2.00;;;1.17;;
58468;SDS011;44257;44.804;10.220;2023-03-15T13:00:51;5.70;;;3.60;;
58468;SDS011;44257;44.804;10.220;2023-03-15T13:03:22;8.82;;;4.53;;
58468;SDS011;44257;44.804;10.220;2023-03-15T13:08:46;5.22;;;2.60;;
58468;SDS011;44257;44.804;10.220;2023-03-15T13:17:34;5.93;;;2.50;;
58468;SDS011;44257;44.804;10.220;2023-03-15T13:20:12;4.28;;;2.22;;
58468;SDS011;44257;44.804;10.220;2023-03-15T13:28:35;4.10;;;2.13;;
58468;SDS011;44257;44.804;10.220;2023-03-15T13:31:10;4.30;;;1.70;;
58468;SDS011;44257;44.804;10.220;2023-03-15T13:33:45;4.18;;;1.98;;
58468;SDS011;44257;44.804;10.220;2023-03-15T13:36:16;4.80;;;2.40;;
58468;SDS011;44257;44.804;10.220;2023-03-15T13:38:54;4.22;;;1.98;;
58468;SDS011;44257;44.804;10.220;2023-03-15T13:41:29;4.43;;;2.25;;
58468;SDS011;44257;44.804;10.220;2023-03-15T13:43:56;3.38;;;1.92;;
58468;SDS011;44257;44.804;10.220;2023-03-15T13:46:25;5.90;;;2.33;;
58468;SDS011;44257;44.804;10.220;2023-03-15T13:48:53;4.32;;;1.95;;
58468;SDS011;44257;44.804;10.220;2023-03-15T13:51:23;5.22;;;2.30;;
58468;SDS011;44257;44.804;10.220;2023-03-15T13:53:54;4.03;;;2.35;;
58468;SDS011;44257;44.804;10.220;2023-03-15T13:56:31;3.67;;;2.05;;
58468;SDS011;44257;44.804;10.220;2023-03-15T13:59:00;3.15;;;1.60;;
58468;SDS011;44257;44.804;10.220;2023-03-15T14:01:27;4.90;;;2.00;;
58468;SDS011;44257;44.804;10.220;2023-03-15T14:03:58;2.67;;;1.63;;
58468;SDS011;44257;44.804;10.220;2023-03-15T14:06:32;4.43;;;2.28;;
58468;SDS011;44257;44.804;10.220;2023-03-15T14:12:05;3.55;;;1.70;;
58468;SDS011;44257;44.804;10.220;2023-03-15T14:14:50;4.00;;;2.08;;
58468;SDS011;44257;44.804;10.220;2023-03-15T14:17:27;3.22;;;1.52;;
58468;SDS011;44257;44.804;10.220;2023-03-15T14:19:55;3.28;;;1.80;;
58468;SDS011;44257;44.804;10.220;2023-03-15T14:22:33;4.38;;;1.70;;
58468;SDS011;44257;44.804;10.220;2023-03-15T14:25:01;5.32;;;2.10;;
58468;SDS011;44257;44.804;10.220;2023-03-15T14:27:28;4.38;;;2.25;;
58468;SDS011;44257;44.804;10.220;2023-03-15T14:29:58;4.22;;;1.85;;
58468;SDS011;44257;44.804;10.220;2023-03-15T14:34:58;4.65;;;2.40;;
58468;SDS011;44257;44.804;10.220;2023-03-15T14:37:37;3.33;;;1.80;;
58468;SDS011;44257;44.804;10.220;2023-03-15T14:42:45;7.07;;;2.10;;
58468;SDS011;44257;44.804;10.220;2023-03-15T14:45:12;5.18;;;2.55;;
58468;SDS011;44257;44.804;10.220;2023-03-15T14:47:49;5.65;;;2.60;;
58468;SDS011;44257;44.804;10.220;2023-03-15T14:50:20;5.18;;;2.28;;
58468;SDS011;44257;44.804;10.220;2023-03-15T14:52:47;4.18;;;1.90;;
58468;SDS011;44257;44.804;10.220;2023-03-15T14:55:19;4.65;;;2.40;;
58468;SDS011;44257;44.804;10.220;2023-03-15T14:57:47;4.75;;;2.10;;
58468;SDS011;44257;44.804;10.220;2023-03-15T15:00:14;5.47;;;2.47;;
58468;SDS011;44257;44.804;10.220;2023-03-15T15:02:47;3.88;;;2.08;;
58468;SDS011;44257;44.804;10.220;2023-03-15T15:05:26;4.60;;;2.15;;
58468;SDS011;44257;44.804;10.220;2023-03-15T15:08:14;3.65;;;1.90;;
58468;SDS011;44257;44.804;10.220;2023-03-15T15:10:43;5.43;;;2.28;;
58468;SDS011;44257;44.804;10.220;2023-03-15T15:13:21;6.10;;;2.08;;
58468;SDS011;44257;44.804;10.220;2023-03-15T15:15:49;4.25;;;1.90;;
58468;SDS011;44257;44.804;10.220;2023-03-15T15:18:15;4.57;;;1.92;;
58468;SDS011;44257;44.804;10.220;2023-03-15T15:20:41;3.30;;;1.58;;
58468;SDS011;44257;44.804;10.220;2023-03-15T15:23:12;3.10;;;1.75;;
58468;SDS011;44257;44.804;10.220;2023-03-15T15:25:52;3.70;;;2.22;;
58468;SDS011;44257;44.804;10.220;2023-03-15T15:28:21;3.80;;;1.70;;
58468;SDS011;44257;44.804;10.220;2023-03-15T15:30:47;6.28;;;1.90;;
58468;SDS011;44257;44.804;10.220;2023-03-15T15:33:13;2.65;;;1.55;;
58468;SDS011;44257;44.804;10.220;2023-03-15T15:35:39;3.40;;;1.85;;
58468;SDS011;44257;44.804;10.220;2023-03-15T15:38:11;3.10;;;1.63;;
58468;SDS011;44257;44.804;10.220;2023-03-15T15:40:37;2.72;;;1.42;;
58468;SDS011;44257;44.804;10.220;2023-03-15T15:43:04;3.20;;;1.75;;
58468;SDS011;44257;44.804;10.220;2023-03-15T15:45:31;4.18;;;1.67;;
58468;SDS011;44257;44.804;10.220;2023-03-15T15:47:59;4.82;;;2.03;;
58468;SDS011;44257;44.804;10.220;2023-03-15T15:50:31;2.95;;;1.60;;
58468;SDS011;44257;44.804;10.220;2023-03-15T15:53:00;4.82;;;1.83;;
58468;SDS011;44257;44.804;10.220;2023-03-15T15:55:28;4.50;;;2.20;;
58468;SDS011;44257;44.804;10.220;2023-03-15T15:58:00;3.15;;;1.65;;
58468;SDS011;44257;44.804;10.220;2023-03-15T16:00:27;3.13;;;1.55;;
58468;SDS011;44257;44.804;10.220;2023-03-15T16:02:54;2.53;;;1.20;;
58468;SDS011;44257;44.804;10.220;2023-03-15T16:05:21;4.40;;;1.67;;
58468;SDS011;44257;44.804;10.220;2023-03-15T16:07:51;4.43;;;1.90;;
58468;SDS011;44257;44.804;10.220;2023-03-15T16:10:20;3.17;;;1.70;;
58468;SDS011;44257;44.804;10.220;2023-03-15T16:12:52;3.15;;;1.27;;
58468;SDS011;44257;44.804;10.220;2023-03-15T16:15:19;4.78;;;1.88;;
58468;SDS011;44257;44.804;10.220;2023-03-15T16:17:45;3.47;;;1.60;;
58468;SDS011;44257;44.804;10.220;2023-03-15T16:20:12;4.95;;;2.35;;
58468;SDS011;44257;44.804;10.220;2023-03-15T16:22:40;6.22;;;1.50;;
58468;SDS011;44257;44.804;10.220;2023-03-15T16:25:30;2.67;;;1.70;;
58468;SDS011;44257;44.804;10.220;2023-03-15T16:27:58;3.20;;;1.35;;
58468;SDS011;44257;44.804;10.220;2023-03-15T16:30:27;5.88;;;2.10;;
58468;SDS011;44257;44.804;10.220;2023-03-15T16:32:56;5.72;;;1.77;;
58468;SDS011;44257;44.804;10.220;2023-03-15T16:35:28;3.13;;;2.05;;
58468;SDS011;44257;44.804;10.220;2023-03-15T16:37:56;4.30;;;1.90;;